< < Back
Terminal Aerodrome Forecast


Current Version              Previous Versions:   1  2  3  4  5  6  7  8  9  

Terminal Aerodrome Forecast

283
FTUS42 KJAX 312300 RRA
TAFJAX
TAF
KJAX 312344Z 0100/0124 12008KT P6SM SCT050 SCT250
     FM010300 16003KT P6SM FEW050 SCT250
     FM011400 18005KT P6SM FEW030 SCT250
     FM011900 12010KT P6SM VCSH SCT040 BKN250=



Latest METAR

327
SAUS80 KWBC 010800 CCB
MTRJAX
METAR KJAX 010756Z 09003KT 10SM FEW080 SCT250 24/23 A2993 RMK AO2 SLP136
T02390233


USA.gov is the U.S. government's official web portal to all federal, state and local government web resources and services.